sensor_id;sensor_type;location;lat;lon;timestamp;temperature;humidity
24800;DHT22;12897;50.812;4.430;2022-09-17T00:01:51;11.60;99.90
24800;DHT22;12897;50.812;4.430;2022-09-17T00:04:20;11.60;99.90
24800;DHT22;12897;50.812;4.430;2022-09-17T00:06:48;11.70;99.90
24800;DHT22;12897;50.812;4.430;2022-09-17T00:09:15;11.70;99.90
24800;DHT22;12897;50.812;4.430;2022-09-17T00:11:43;11.70;99.90
24800;DHT22;12897;50.812;4.430;2022-09-17T00:14:14;11.60;99.90
24800;DHT22;12897;50.812;4.430;2022-09-17T00:16:44;11.50;99.90
24800;DHT22;12897;50.812;4.430;2022-09-17T00:19:18;11.50;99.90
24800;DHT22;12897;50.812;4.430;2022-09-17T00:21:47;11.60;99.90
24800;DHT22;12897;50.812;4.430;2022-09-17T00:24:16;11.70;99.90
24800;DHT22;12897;50.812;4.430;2022-09-17T00:26:44;11.80;99.90
24800;DHT22;12897;50.812;4.430;2022-09-17T00:29:11;11.70;99.90
24800;DHT22;12897;50.812;4.430;2022-09-17T00:31:45;11.70;99.90
24800;DHT22;12897;50.812;4.430;2022-09-17T00:34:10;11.70;99.90
24800;DHT22;12897;50.812;4.430;2022-09-17T00:36:38;11.70;99.90
24800;DHT22;12897;50.812;4.430;2022-09-17T00:39:07;11.60;99.90
24800;DHT22;12897;50.812;4.430;2022-09-17T00:41:36;11.70;99.90
24800;DHT22;12897;50.812;4.430;2022-09-17T00:44:43;11.70;99.90
24800;DHT22;12897;50.812;4.430;2022-09-17T00:47:25;11.60;99.90
24800;DHT22;12897;50.812;4.430;2022-09-17T00:50:04;11.60;99.90
24800;DHT22;12897;50.812;4.430;2022-09-17T00:52:35;11.60;99.90
24800;DHT22;12897;50.812;4.430;2022-09-17T00:55:23;11.70;99.90
24800;DHT22;12897;50.812;4.430;2022-09-17T00:57:49;11.60;99.90
24800;DHT22;12897;50.812;4.430;2022-09-17T01:00:19;11.80;99.90
24800;DHT22;12897;50.812;4.430;2022-09-17T01:02:48;11.90;99.90
24800;DHT22;12897;50.812;4.430;2022-09-17T01:05:15;12.00;99.90
24800;DHT22;12897;50.812;4.430;2022-09-17T01:08:03;11.90;99.90
24800;DHT22;12897;50.812;4.430;2022-09-17T01:10:53;11.90;99.90
24800;DHT22;12897;50.812;4.430;2022-09-17T01:18:51;11.90;99.90
24800;DHT22;12897;50.812;4.430;2022-09-17T01:35:35;11.90;99.90
24800;DHT22;12897;50.812;4.430;2022-09-17T01:40:50;12.00;99.90
24800;DHT22;12897;50.812;4.430;2022-09-17T01:43:23;12.00;99.90
24800;DHT22;12897;50.812;4.430;2022-09-17T01:48:40;12.00;99.90
24800;DHT22;12897;50.812;4.430;2022-09-17T01:51:15;12.10;99.90
24800;DHT22;12897;50.812;4.430;2022-09-17T01:53:55;12.10;99.90
24800;DHT22;12897;50.812;4.430;2022-09-17T01:56:34;12.20;99.90
24800;DHT22;12897;50.812;4.430;2022-09-17T01:59:03;12.00;99.90
24800;DHT22;12897;50.812;4.430;2022-09-17T02:01:31;12.00;99.90
24800;DHT22;12897;50.812;4.430;2022-09-17T02:04:06;12.10;99.90
24800;DHT22;12897;50.812;4.430;2022-09-17T02:06:39;12.20;99.90
24800;DHT22;12897;50.812;4.430;2022-09-17T02:09:13;12.10;99.90
24800;DHT22;12897;50.812;4.430;2022-09-17T02:11:42;12.00;99.90
24800;DHT22;12897;50.812;4.430;2022-09-17T02:14:14;11.90;99.90
24800;DHT22;12897;50.812;4.430;2022-09-17T02:16:49;11.80;99.90
24800;DHT22;12897;50.812;4.430;2022-09-17T02:19:31;11.80;99.90
24800;DHT22;12897;50.812;4.430;2022-09-17T02:22:31;11.90;99.90
24800;DHT22;12897;50.812;4.430;2022-09-17T02:25:00;11.90;99.90
24800;DHT22;12897;50.812;4.430;2022-09-17T02:27:38;11.80;99.90
24800;DHT22;12897;50.812;4.430;2022-09-17T02:30:07;11.80;99.90
24800;DHT22;12897;50.812;4.430;2022-09-17T02:32:35;11.90;99.90
24800;DHT22;12897;50.812;4.430;2022-09-17T02:35:03;11.90;99.90
24800;DHT22;12897;50.812;4.430;2022-09-17T02:37:32;12.00;99.90
24800;DHT22;12897;50.812;4.430;2022-09-17T02:40:00;12.10;99.90
24800;DHT22;12897;50.812;4.430;2022-09-17T02:42:40;12.20;99.90
24800;DHT22;12897;50.812;4.430;2022-09-17T02:45:31;12.20;99.90
24800;DHT22;12897;50.812;4.430;2022-09-17T02:48:08;12.20;99.90
24800;DHT22;12897;50.812;4.430;2022-09-17T02:50:49;12.30;99.90
24800;DHT22;12897;50.812;4.430;2022-09-17T02:55:51;12.40;99.90
24800;DHT22;12897;50.812;4.430;2022-09-17T02:58:24;12.40;99.90
24800;DHT22;12897;50.812;4.430;2022-09-17T03:00:52;12.30;99.90
24800;DHT22;12897;50.812;4.430;2022-09-17T03:03:27;12.30;99.90
24800;DHT22;12897;50.812;4.430;2022-09-17T03:05:52;12.30;99.90
24800;DHT22;12897;50.812;4.430;2022-09-17T03:08:26;12.20;99.90
24800;DHT22;12897;50.812;4.430;2022-09-17T03:10:52;12.20;99.90
24800;DHT22;12897;50.812;4.430;2022-09-17T03:13:20;12.20;99.90
24800;DHT22;12897;50.812;4.430;2022-09-17T03:15:47;12.10;99.90
24800;DHT22;12897;50.812;4.430;2022-09-17T03:18:15;12.10;99.90
24800;DHT22;12897;50.812;4.430;2022-09-17T03:20:42;12.00;99.90
24800;DHT22;12897;50.812;4.430;2022-09-17T03:23:11;11.90;99.90
24800;DHT22;12897;50.812;4.430;2022-09-17T03:25:39;11.90;99.90
24800;DHT22;12897;50.812;4.430;2022-09-17T03:28:07;11.70;99.90
24800;DHT22;12897;50.812;4.430;2022-09-17T03:30:34;11.70;99.90
24800;DHT22;12897;50.812;4.430;2022-09-17T03:33:02;11.60;99.90
24800;DHT22;12897;50.812;4.430;2022-09-17T03:35:29;11.60;99.90
24800;DHT22;12897;50.812;4.430;2022-09-17T03:37:57;11.60;99.90
24800;DHT22;12897;50.812;4.430;2022-09-17T03:40:24;11.60;99.90
24800;DHT22;12897;50.812;4.430;2022-09-17T03:42:52;11.60;99.90
24800;DHT22;12897;50.812;4.430;2022-09-17T03:45:19;11.60;99.90
24800;DHT22;12897;50.812;4.430;2022-09-17T03:47:47;11.50;99.90
24800;DHT22;12897;50.812;4.430;2022-09-17T03:50:15;11.50;99.90
24800;DHT22;12897;50.812;4.430;2022-09-17T03:52:45;11.60;99.90
24800;DHT22;12897;50.812;4.430;2022-09-17T03:55:12;11.60;99.90
24800;DHT22;12897;50.812;4.430;2022-09-17T03:57:41;11.60;99.90
24800;DHT22;12897;50.812;4.430;2022-09-17T04:00:10;11.50;99.90
24800;DHT22;12897;50.812;4.430;2022-09-17T04:02:40;11.40;99.90
24800;DHT22;12897;50.812;4.430;2022-09-17T04:05:08;11.40;99.90
24800;DHT22;12897;50.812;4.430;2022-09-17T04:07:37;11.40;99.90
24800;DHT22;12897;50.812;4.430;2022-09-17T04:10:06;11.40;99.90
24800;DHT22;12897;50.812;4.430;2022-09-17T04:12:34;11.20;99.90
24800;DHT22;12897;50.812;4.430;2022-09-17T04:15:01;11.20;99.90
24800;DHT22;12897;50.812;4.430;2022-09-17T04:17:29;11.20;99.90
24800;DHT22;12897;50.812;4.430;2022-09-17T04:19:56;11.20;99.90
24800;DHT22;12897;50.812;4.430;2022-09-17T04:22:27;11.20;99.90
24800;DHT22;12897;50.812;4.430;2022-09-17T04:24:54;11.30;99.90
24800;DHT22;12897;50.812;4.430;2022-09-17T04:27:21;11.30;99.90
24800;DHT22;12897;50.812;4.430;2022-09-17T04:29:49;11.20;99.90
24800;DHT22;12897;50.812;4.430;2022-09-17T04:32:17;11.20;99.90
24800;DHT22;12897;50.812;4.430;2022-09-17T04:34:46;11.20;99.90
24800;DHT22;12897;50.812;4.430;2022-09-17T04:37:22;11.20;99.90
24800;DHT22;12897;50.812;4.430;2022-09-17T04:39:58;11.10;99.90
24800;DHT22;12897;50.812;4.430;2022-09-17T04:42:28;11.10;99.90
24800;DHT22;12897;50.812;4.430;2022-09-17T04:44:56;11.10;99.90
24800;DHT22;12897;50.812;4.430;2022-09-17T04:47:24;11.10;99.90
24800;DHT22;12897;50.812;4.430;2022-09-17T04:49:52;11.10;99.90
24800;DHT22;12897;50.812;4.430;2022-09-17T04:52:20;11.10;99.90
24800;DHT22;12897;50.812;4.430;2022-09-17T04:54:47;11.00;99.90
24800;DHT22;12897;50.812;4.430;2022-09-17T04:57:15;11.10;99.90
24800;DHT22;12897;50.812;4.430;2022-09-17T04:59:42;11.20;99.90
24800;DHT22;12897;50.812;4.430;2022-09-17T05:02:10;11.30;99.90
24800;DHT22;12897;50.812;4.430;2022-09-17T05:04:37;11.20;99.90
24800;DHT22;12897;50.812;4.430;2022-09-17T05:07:05;11.20;99.90
24800;DHT22;12897;50.812;4.430;2022-09-17T05:09:32;11.20;99.90
24800;DHT22;12897;50.812;4.430;2022-09-17T05:12:00;11.20;99.90
24800;DHT22;12897;50.812;4.430;2022-09-17T05:14:30;11.20;99.90
24800;DHT22;12897;50.812;4.430;2022-09-17T05:16:58;11.20;99.90
24800;DHT22;12897;50.812;4.430;2022-09-17T05:19:25;11.20;99.90
24800;DHT22;12897;50.812;4.430;2022-09-17T05:21:53;11.20;99.90
24800;DHT22;12897;50.812;4.430;2022-09-17T05:24:20;11.20;99.90
24800;DHT22;12897;50.812;4.430;2022-09-17T05:26:48;11.10;99.90
24800;DHT22;12897;50.812;4.430;2022-09-17T05:29:15;11.10;99.90
24800;DHT22;12897;50.812;4.430;2022-09-17T05:31:43;11.00;99.90
24800;DHT22;12897;50.812;4.430;2022-09-17T05:34:11;11.10;99.90
24800;DHT22;12897;50.812;4.430;2022-09-17T05:36:38;11.20;99.90
24800;DHT22;12897;50.812;4.430;2022-09-17T05:39:06;11.30;99.90
24800;DHT22;12897;50.812;4.430;2022-09-17T05:41:34;11.30;99.90
24800;DHT22;12897;50.812;4.430;2022-09-17T05:44:02;11.40;99.90
24800;DHT22;12897;50.812;4.430;2022-09-17T05:46:31;11.50;99.90
24800;DHT22;12897;50.812;4.430;2022-09-17T05:48:59;11.50;99.90
24800;DHT22;12897;50.812;4.430;2022-09-17T05:51:26;11.50;99.90
24800;DHT22;12897;50.812;4.430;2022-09-17T05:53:54;11.50;99.90
24800;DHT22;12897;50.812;4.430;2022-09-17T05:56:22;11.50;99.90
24800;DHT22;12897;50.812;4.430;2022-09-17T05:58:49;11.40;99.90
24800;DHT22;12897;50.812;4.430;2022-09-17T06:01:17;11.60;99.90
24800;DHT22;12897;50.812;4.430;2022-09-17T06:03:45;11.50;99.90
24800;DHT22;12897;50.812;4.430;2022-09-17T06:06:12;11.50;99.90
24800;DHT22;12897;50.812;4.430;2022-09-17T06:08:40;11.50;99.90
24800;DHT22;12897;50.812;4.430;2022-09-17T06:11:08;11.70;99.90
24800;DHT22;12897;50.812;4.430;2022-09-17T06:13:36;11.60;99.90
24800;DHT22;12897;50.812;4.430;2022-09-17T06:16:04;11.80;99.90
24800;DHT22;12897;50.812;4.430;2022-09-17T06:18:31;11.90;99.90
24800;DHT22;12897;50.812;4.430;2022-09-17T06:21:01;12.00;99.90
24800;DHT22;12897;50.812;4.430;2022-09-17T06:23:34;12.00;99.90
24800;DHT22;12897;50.812;4.430;2022-09-17T06:26:04;12.10;99.90
24800;DHT22;12897;50.812;4.430;2022-09-17T06:28:32;12.10;99.90
24800;DHT22;12897;50.812;4.430;2022-09-17T06:31:04;12.20;99.90
24800;DHT22;12897;50.812;4.430;2022-09-17T06:33:31;12.30;99.90
24800;DHT22;12897;50.812;4.430;2022-09-17T06:36:07;12.30;99.90
24800;DHT22;12897;50.812;4.430;2022-09-17T06:38:35;12.30;99.90
24800;DHT22;12897;50.812;4.430;2022-09-17T06:41:04;12.20;99.90
24800;DHT22;12897;50.812;4.430;2022-09-17T06:43:34;12.20;99.90
24800;DHT22;12897;50.812;4.430;2022-09-17T06:46:03;12.20;99.90
24800;DHT22;12897;50.812;4.430;2022-09-17T06:48:32;12.20;99.90
24800;DHT22;12897;50.812;4.430;2022-09-17T06:51:06;12.30;99.90
24800;DHT22;12897;50.812;4.430;2022-09-17T06:53:35;12.30;99.90
24800;DHT22;12897;50.812;4.430;2022-09-17T06:56:04;12.30;99.90
24800;DHT22;12897;50.812;4.430;2022-09-17T06:58:34;12.40;99.90
24800;DHT22;12897;50.812;4.430;2022-09-17T07:01:05;12.50;99.90
24800;DHT22;12897;50.812;4.430;2022-09-17T07:03:33;12.60;99.90
24800;DHT22;12897;50.812;4.430;2022-09-17T07:06:01;12.60;99.90
24800;DHT22;12897;50.812;4.430;2022-09-17T07:08:31;12.70;99.90
24800;DHT22;12897;50.812;4.430;2022-09-17T07:11:00;12.70;99.90
24800;DHT22;12897;50.812;4.430;2022-09-17T07:13:28;12.80;99.90
24800;DHT22;12897;50.812;4.430;2022-09-17T07:15:58;12.90;99.90
24800;DHT22;12897;50.812;4.430;2022-09-17T07:18:25;12.90;99.90
24800;DHT22;12897;50.812;4.430;2022-09-17T07:20:54;12.90;99.90
24800;DHT22;12897;50.812;4.430;2022-09-17T07:23:26;13.00;99.90
24800;DHT22;12897;50.812;4.430;2022-09-17T07:25:57;13.00;99.90
24800;DHT22;12897;50.812;4.430;2022-09-17T07:28:25;12.70;99.90
24800;DHT22;12897;50.812;4.430;2022-09-17T07:30:54;12.70;99.90
24800;DHT22;12897;50.812;4.430;2022-09-17T07:33:24;12.60;99.90
24800;DHT22;12897;50.812;4.430;2022-09-17T07:36:04;12.60;99.90
24800;DHT22;12897;50.812;4.430;2022-09-17T07:38:33;12.60;99.90
24800;DHT22;12897;50.812;4.430;2022-09-17T07:41:05;12.50;99.90
24800;DHT22;12897;50.812;4.430;2022-09-17T07:43:34;12.60;99.90
24800;DHT22;12897;50.812;4.430;2022-09-17T07:46:04;12.80;99.90
24800;DHT22;12897;50.812;4.430;2022-09-17T07:48:32;13.00;99.90
24800;DHT22;12897;50.812;4.430;2022-09-17T07:51:00;13.20;99.90
24800;DHT22;12897;50.812;4.430;2022-09-17T07:53:33;13.40;99.90
24800;DHT22;12897;50.812;4.430;2022-09-17T07:55:59;13.40;99.90
24800;DHT22;12897;50.812;4.430;2022-09-17T07:58:32;13.30;99.90
24800;DHT22;12897;50.812;4.430;2022-09-17T08:01:08;13.40;99.90
24800;DHT22;12897;50.812;4.430;2022-09-17T08:03:37;13.40;99.90
24800;DHT22;12897;50.812;4.430;2022-09-17T08:06:10;13.40;99.90
24800;DHT22;12897;50.812;4.430;2022-09-17T08:08:40;13.40;99.90
24800;DHT22;12897;50.812;4.430;2022-09-17T08:11:17;13.40;99.90
24800;DHT22;12897;50.812;4.430;2022-09-17T08:13:42;13.60;99.90
24800;DHT22;12897;50.812;4.430;2022-09-17T08:16:11;13.50;99.90
24800;DHT22;12897;50.812;4.430;2022-09-17T08:18:40;13.70;99.90
24800;DHT22;12897;50.812;4.430;2022-09-17T08:21:11;13.50;99.90
24800;DHT22;12897;50.812;4.430;2022-09-17T08:23:41;13.40;99.90
24800;DHT22;12897;50.812;4.430;2022-09-17T08:26:14;13.50;99.90
24800;DHT22;12897;50.812;4.430;2022-09-17T08:28:46;13.40;99.90
24800;DHT22;12897;50.812;4.430;2022-09-17T08:33:56;13.40;99.90
24800;DHT22;12897;50.812;4.430;2022-09-17T08:36:24;13.40;99.90
24800;DHT22;12897;50.812;4.430;2022-09-17T08:38:54;13.50;99.90
24800;DHT22;12897;50.812;4.430;2022-09-17T08:44:24;13.80;99.90
24800;DHT22;12897;50.812;4.430;2022-09-17T08:46:57;13.90;99.90
24800;DHT22;12897;50.812;4.430;2022-09-17T08:52:16;14.20;99.90
24800;DHT22;12897;50.812;4.430;2022-09-17T09:00:11;14.50;99.90
24800;DHT22;12897;50.812;4.430;2022-09-17T09:10:53;14.40;99.90
24800;DHT22;12897;50.812;4.430;2022-09-17T09:13:24;14.30;99.90
24800;DHT22;12897;50.812;4.430;2022-09-17T09:15:58;14.30;99.90
24800;DHT22;12897;50.812;4.430;2022-09-17T09:18:28;14.30;99.90
24800;DHT22;12897;50.812;4.430;2022-09-17T09:23:55;14.80;99.90
24800;DHT22;12897;50.812;4.430;2022-09-17T09:26:23;14.50;99.90
24800;DHT22;12897;50.812;4.430;2022-09-17T09:29:06;14.10;99.90
24800;DHT22;12897;50.812;4.430;2022-09-17T09:34:16;14.00;99.90
24800;DHT22;12897;50.812;4.430;2022-09-17T09:36:46;14.10;99.90
24800;DHT22;12897;50.812;4.430;2022-09-17T09:39:18;14.10;99.90
24800;DHT22;12897;50.812;4.430;2022-09-17T09:41:51;13.90;99.90
24800;DHT22;12897;50.812;4.430;2022-09-17T09:44:21;13.80;99.90
24800;DHT22;12897;50.812;4.430;2022-09-17T09:58:21;13.80;99.90
24800;DHT22;12897;50.812;4.430;2022-09-17T10:00:47;13.90;99.90
24800;DHT22;12897;50.812;4.430;2022-09-17T10:03:23;13.90;99.90
24800;DHT22;12897;50.812;4.430;2022-09-17T10:05:53;14.10;99.90
24800;DHT22;12897;50.812;4.430;2022-09-17T10:08:22;14.20;99.90
24800;DHT22;12897;50.812;4.430;2022-09-17T10:10:55;14.30;99.90
24800;DHT22;12897;50.812;4.430;2022-09-17T10:13:23;14.30;99.90
24800;DHT22;12897;50.812;4.430;2022-09-17T10:15:51;14.40;99.90
24800;DHT22;12897;50.812;4.430;2022-09-17T10:18:21;14.50;99.90
24800;DHT22;12897;50.812;4.430;2022-09-17T10:20:56;14.70;99.90
24800;DHT22;12897;50.812;4.430;2022-09-17T10:23:22;14.80;99.90
24800;DHT22;12897;50.812;4.430;2022-09-17T10:25:52;14.90;99.90
24800;DHT22;12897;50.812;4.430;2022-09-17T10:31:03;14.90;99.90
24800;DHT22;12897;50.812;4.430;2022-09-17T10:33:36;14.60;99.90
24800;DHT22;12897;50.812;4.430;2022-09-17T10:36:06;14.50;99.90
24800;DHT22;12897;50.812;4.430;2022-09-17T10:38:46;14.30;99.90
24800;DHT22;12897;50.812;4.430;2022-09-17T10:41:17;14.30;99.90
24800;DHT22;12897;50.812;4.430;2022-09-17T10:43:47;14.50;99.90
24800;DHT22;12897;50.812;4.430;2022-09-17T10:46:20;14.60;99.90
24800;DHT22;12897;50.812;4.430;2022-09-17T10:48:56;14.70;99.90
24800;DHT22;12897;50.812;4.430;2022-09-17T10:51:23;14.80;99.90
24800;DHT22;12897;50.812;4.430;2022-09-17T10:53:58;14.70;99.90
24800;DHT22;12897;50.812;4.430;2022-09-17T10:56:32;14.60;99.90
24800;DHT22;12897;50.812;4.430;2022-09-17T11:01:56;14.90;99.90
24800;DHT22;12897;50.812;4.430;2022-09-17T11:10:20;14.70;99.90
24800;DHT22;12897;50.812;4.430;2022-09-17T11:12:50;14.50;99.90
24800;DHT22;12897;50.812;4.430;2022-09-17T11:21:09;14.60;99.90
24800;DHT22;12897;50.812;4.430;2022-09-17T11:26:26;15.00;99.90
24800;DHT22;12897;50.812;4.430;2022-09-17T11:31:57;14.50;99.90
24800;DHT22;12897;50.812;4.430;2022-09-17T11:37:31;14.00;99.90
24800;DHT22;12897;50.812;4.430;2022-09-17T11:42:36;14.10;99.90
24800;DHT22;12897;50.812;4.430;2022-09-17T11:45:05;14.40;99.90
24800;DHT22;12897;50.812;4.430;2022-09-17T11:47:35;14.30;99.90
24800;DHT22;12897;50.812;4.430;2022-09-17T11:50:21;14.40;99.90
24800;DHT22;12897;50.812;4.430;2022-09-17T11:56:09;14.60;99.90
24800;DHT22;12897;50.812;4.430;2022-09-17T11:59:14;14.50;99.90
24800;DHT22;12897;50.812;4.430;2022-09-17T12:04:18;14.60;99.90
24800;DHT22;12897;50.812;4.430;2022-09-17T12:06:38;14.50;99.90
24800;DHT22;12897;50.812;4.430;2022-09-17T12:09:31;14.40;99.90
24800;DHT22;12897;50.812;4.430;2022-09-17T12:14:22;14.40;99.90
24800;DHT22;12897;50.812;4.430;2022-09-17T12:16:56;14.50;99.90
24800;DHT22;12897;50.812;4.430;2022-09-17T12:19:35;14.50;99.90
24800;DHT22;12897;50.812;4.430;2022-09-17T12:22:30;14.70;99.90
24800;DHT22;12897;50.812;4.430;2022-09-17T12:24:43;14.90;99.90
24800;DHT22;12897;50.812;4.430;2022-09-17T12:30:22;14.80;99.90
24800;DHT22;12897;50.812;4.430;2022-09-17T12:32:57;14.80;99.90
24800;DHT22;12897;50.812;4.430;2022-09-17T12:35:48;15.00;99.90
24800;DHT22;12897;50.812;4.430;2022-09-17T12:40:56;15.00;99.90
24800;DHT22;12897;50.812;4.430;2022-09-17T12:49:29;15.20;99.90
24800;DHT22;12897;50.812;4.430;2022-09-17T12:52:03;15.20;99.90
24800;DHT22;12897;50.812;4.430;2022-09-17T13:00:24;15.00;99.90
24800;DHT22;12897;50.812;4.430;2022-09-17T13:03:01;14.90;99.90
24800;DHT22;12897;50.812;4.430;2022-09-17T13:05:30;14.70;99.90
24800;DHT22;12897;50.812;4.430;2022-09-17T13:16:43;14.10;99.90
24800;DHT22;12897;50.812;4.430;2022-09-17T13:22:03;13.70;99.90
24800;DHT22;12897;50.812;4.430;2022-09-17T13:24:33;13.50;99.90
24800;DHT22;12897;50.812;4.430;2022-09-17T13:27:03;13.40;99.90
24800;DHT22;12897;50.812;4.430;2022-09-17T13:37:57;13.70;99.90
24800;DHT22;12897;50.812;4.430;2022-09-17T13:40:32;13.80;99.90
24800;DHT22;12897;50.812;4.430;2022-09-17T13:43:07;13.80;99.90
24800;DHT22;12897;50.812;4.430;2022-09-17T13:48:33;13.90;99.90
24800;DHT22;12897;50.812;4.430;2022-09-17T13:51:42;14.20;99.90
24800;DHT22;12897;50.812;4.430;2022-09-17T13:54:08;14.30;99.90
24800;DHT22;12897;50.812;4.430;2022-09-17T13:56:44;14.60;99.90
24800;DHT22;12897;50.812;4.430;2022-09-17T14:02:47;14.80;99.90
24800;DHT22;12897;50.812;4.430;2022-09-17T14:04:45;14.90;99.90
24800;DHT22;12897;50.812;4.430;2022-09-17T14:07:26;14.90;99.90
24800;DHT22;12897;50.812;4.430;2022-09-17T14:09:43;15.00;99.90
24800;DHT22;12897;50.812;4.430;2022-09-17T14:12:21;15.00;99.90
24800;DHT22;12897;50.812;4.430;2022-09-17T14:14:39;15.10;99.90
24800;DHT22;12897;50.812;4.430;2022-09-17T14:17:07;15.20;99.90
24800;DHT22;12897;50.812;4.430;2022-09-17T14:19:48;15.20;99.90
24800;DHT22;12897;50.812;4.430;2022-09-17T14:22:24;15.10;99.90
24800;DHT22;12897;50.812;4.430;2022-09-17T14:24:54;15.10;99.90
24800;DHT22;12897;50.812;4.430;2022-09-17T14:30:04;15.30;99.90
24800;DHT22;12897;50.812;4.430;2022-09-17T14:32:35;15.50;99.90
24800;DHT22;12897;50.812;4.430;2022-09-17T14:35:18;15.60;99.90
24800;DHT22;12897;50.812;4.430;2022-09-17T14:37:45;15.70;99.90
24800;DHT22;12897;50.812;4.430;2022-09-17T14:40:16;15.60;99.90
24800;DHT22;12897;50.812;4.430;2022-09-17T14:42:46;15.30;99.90
24800;DHT22;12897;50.812;4.430;2022-09-17T14:45:18;14.40;99.90
24800;DHT22;12897;50.812;4.430;2022-09-17T14:47:45;13.60;99.90
24800;DHT22;12897;50.812;4.430;2022-09-17T14:50:24;13.50;99.90
24800;DHT22;12897;50.812;4.430;2022-09-17T14:52:53;13.30;99.90
24800;DHT22;12897;50.812;4.430;2022-09-17T14:55:30;13.10;99.90
24800;DHT22;12897;50.812;4.430;2022-09-17T14:57:57;13.10;99.90
24800;DHT22;12897;50.812;4.430;2022-09-17T15:00:35;13.10;99.90
24800;DHT22;12897;50.812;4.430;2022-09-17T15:03:04;13.20;99.90
24800;DHT22;12897;50.812;4.430;2022-09-17T15:05:33;13.30;99.90
24800;DHT22;12897;50.812;4.430;2022-09-17T15:08:15;13.30;99.90
24800;DHT22;12897;50.812;4.430;2022-09-17T15:11:05;13.50;99.90
24800;DHT22;12897;50.812;4.430;2022-09-17T15:13:41;13.60;99.90
24800;DHT22;12897;50.812;4.430;2022-09-17T15:16:26;13.80;99.90
24800;DHT22;12897;50.812;4.430;2022-09-17T15:18:54;13.90;99.90
24800;DHT22;12897;50.812;4.430;2022-09-17T15:21:38;13.90;99.90
24800;DHT22;12897;50.812;4.430;2022-09-17T15:26:50;14.00;99.90
24800;DHT22;12897;50.812;4.430;2022-09-17T15:29:20;13.90;99.90
24800;DHT22;12897;50.812;4.430;2022-09-17T15:31:48;14.00;99.90
24800;DHT22;12897;50.812;4.430;2022-09-17T15:34:16;13.90;99.90
24800;DHT22;12897;50.812;4.430;2022-09-17T15:37:02;13.90;99.90
24800;DHT22;12897;50.812;4.430;2022-09-17T15:39:39;13.80;99.90
24800;DHT22;12897;50.812;4.430;2022-09-17T15:42:19;13.80;99.90
24800;DHT22;12897;50.812;4.430;2022-09-17T15:44:38;13.90;99.90
24800;DHT22;12897;50.812;4.430;2022-09-17T15:47:43;14.00;99.90
24800;DHT22;12897;50.812;4.430;2022-09-17T15:52:43;14.10;99.90
24800;DHT22;12897;50.812;4.430;2022-09-17T15:55:31;14.10;99.90
24800;DHT22;12897;50.812;4.430;2022-09-17T15:58:01;14.10;99.90
24800;DHT22;12897;50.812;4.430;2022-09-17T16:00:30;14.10;99.90
24800;DHT22;12897;50.812;4.430;2022-09-17T16:02:57;14.00;99.90
24800;DHT22;12897;50.812;4.430;2022-09-17T16:08:20;13.90;99.90
24800;DHT22;12897;50.812;4.430;2022-09-17T16:10:48;13.90;99.90
24800;DHT22;12897;50.812;4.430;2022-09-17T16:13:15;13.80;99.90
24800;DHT22;12897;50.812;4.430;2022-09-17T16:15:43;13.60;99.90
24800;DHT22;12897;50.812;4.430;2022-09-17T16:18:12;13.60;99.90
24800;DHT22;12897;50.812;4.430;2022-09-17T16:20:40;13.70;99.90
24800;DHT22;12897;50.812;4.430;2022-09-17T16:23:08;13.80;99.90
24800;DHT22;12897;50.812;4.430;2022-09-17T16:25:36;13.80;99.90
24800;DHT22;12897;50.812;4.430;2022-09-17T16:28:12;13.80;99.90
24800;DHT22;12897;50.812;4.430;2022-09-17T16:30:44;13.90;99.90
24800;DHT22;12897;50.812;4.430;2022-09-17T16:33:14;13.90;99.90
24800;DHT22;12897;50.812;4.430;2022-09-17T16:35:43;14.00;99.90
24800;DHT22;12897;50.812;4.430;2022-09-17T16:38:10;13.90;99.90
24800;DHT22;12897;50.812;4.430;2022-09-17T16:40:43;13.70;99.90
24800;DHT22;12897;50.812;4.430;2022-09-17T16:43:12;13.80;99.90
24800;DHT22;12897;50.812;4.430;2022-09-17T16:45:40;13.80;99.90
24800;DHT22;12897;50.812;4.430;2022-09-17T16:48:08;13.70;99.90
24800;DHT22;12897;50.812;4.430;2022-09-17T16:50:38;13.70;99.90
24800;DHT22;12897;50.812;4.430;2022-09-17T16:53:06;13.70;99.90
24800;DHT22;12897;50.812;4.430;2022-09-17T16:55:35;13.70;99.90
24800;DHT22;12897;50.812;4.430;2022-09-17T16:58:04;13.70;99.90
24800;DHT22;12897;50.812;4.430;2022-09-17T17:00:35;13.70;99.90
24800;DHT22;12897;50.812;4.430;2022-09-17T17:03:03;13.70;99.90
24800;DHT22;12897;50.812;4.430;2022-09-17T17:05:35;13.50;99.90
24800;DHT22;12897;50.812;4.430;2022-09-17T17:08:04;13.60;99.90
24800;DHT22;12897;50.812;4.430;2022-09-17T17:10:33;13.50;99.90
24800;DHT22;12897;50.812;4.430;2022-09-17T17:13:00;13.40;99.90
24800;DHT22;12897;50.812;4.430;2022-09-17T17:15:28;13.40;99.90
24800;DHT22;12897;50.812;4.430;2022-09-17T17:17:57;13.50;99.90
24800;DHT22;12897;50.812;4.430;2022-09-17T17:20:25;13.60;99.90
24800;DHT22;12897;50.812;4.430;2022-09-17T17:22:54;13.50;99.90
24800;DHT22;12897;50.812;4.430;2022-09-17T17:25:21;13.50;99.90
24800;DHT22;12897;50.812;4.430;2022-09-17T17:27:49;13.40;99.90
24800;DHT22;12897;50.812;4.430;2022-09-17T17:30:16;13.40;99.90
24800;DHT22;12897;50.812;4.430;2022-09-17T17:32:48;13.20;99.90
24800;DHT22;12897;50.812;4.430;2022-09-17T17:35:15;13.10;99.90
24800;DHT22;12897;50.812;4.430;2022-09-17T17:37:43;13.10;99.90
24800;DHT22;12897;50.812;4.430;2022-09-17T17:40:11;13.20;99.90
24800;DHT22;12897;50.812;4.430;2022-09-17T17:42:39;13.20;99.90
24800;DHT22;12897;50.812;4.430;2022-09-17T17:45:08;13.20;99.90
24800;DHT22;12897;50.812;4.430;2022-09-17T17:47:37;13.20;99.90
24800;DHT22;12897;50.812;4.430;2022-09-17T17:50:05;13.20;99.90
24800;DHT22;12897;50.812;4.430;2022-09-17T17:52:36;13.20;99.90
24800;DHT22;12897;50.812;4.430;2022-09-17T17:55:06;13.20;99.90
24800;DHT22;12897;50.812;4.430;2022-09-17T17:57:33;13.20;99.90
24800;DHT22;12897;50.812;4.430;2022-09-17T18:00:02;13.10;99.90
24800;DHT22;12897;50.812;4.430;2022-09-17T18:02:31;13.10;99.90
24800;DHT22;12897;50.812;4.430;2022-09-17T18:04:58;13.10;99.90
24800;DHT22;12897;50.812;4.430;2022-09-17T18:07:28;13.10;99.90
24800;DHT22;12897;50.812;4.430;2022-09-17T18:09:55;13.10;99.90
24800;DHT22;12897;50.812;4.430;2022-09-17T18:12:24;13.00;99.90
24800;DHT22;12897;50.812;4.430;2022-09-17T18:14:53;12.90;99.90
24800;DHT22;12897;50.812;4.430;2022-09-17T18:17:20;12.90;99.90
24800;DHT22;12897;50.812;4.430;2022-09-17T18:19:48;12.90;99.90
24800;DHT22;12897;50.812;4.430;2022-09-17T18:22:17;12.90;99.90
24800;DHT22;12897;50.812;4.430;2022-09-17T18:24:44;12.80;99.90
24800;DHT22;12897;50.812;4.430;2022-09-17T18:27:12;12.80;99.90
24800;DHT22;12897;50.812;4.430;2022-09-17T18:29:40;12.80;99.90
24800;DHT22;12897;50.812;4.430;2022-09-17T18:32:10;12.90;99.90